Time;durP1;ratioP1;P1;durP2;ratioP2;P2;SDS_P1;SDS_P2;PMS_P1;PMS_P2;Temp;Humidity;BMP_temperature;BMP_pressure;BME280_temperature;BME280_humidity;BME280_pressure;Samples;Min_cycle;Max_cycle;Signal;HPM_P1;HPM_P2
2021/09/23 00:02:13;;;;;;;16.13;13.05;;;11.70;99.90;;;;;;6160682;23;20009;-82
2021/09/23 00:04:41;;;;;;;16.48;11.77;;;11.70;99.90;;;;;;6184683;23;20016;-82
2021/09/23 00:07:07;;;;;;;14.93;10.95;;;11.70;99.90;;;;;;6238573;23;20039;-82
2021/09/23 00:09:34;;;;;;;13.48;10.10;;;11.70;99.90;;;;;;6212288;23;20008;-82
2021/09/23 00:12:01;;;;;;;18.13;12.40;;;11.70;99.90;;;;;;6186563;23;20008;-82
2021/09/23 00:14:27;;;;;;;17.80;13.27;;;11.60;99.90;;;;;;6185928;23;20012;-82
2021/09/23 00:16:54;;;;;;;13.38;10.93;;;11.60;99.90;;;;;;6159554;23;20012;-82
2021/09/23 00:19:20;;;;;;;17.70;12.55;;;11.60;99.90;;;;;;6161103;23;20008;-82
2021/09/23 00:21:46;;;;;;;18.27;13.90;;;11.60;99.90;;;;;;6213729;23;20039;-82
2021/09/23 00:24:13;;;;;;;16.67;12.10;;;11.60;99.90;;;;;;6161246;23;20019;-82
2021/09/23 00:26:39;;;;;;;18.08;11.70;;;11.60;99.90;;;;;;6212834;23;20019;-83
2021/09/23 00:29:06;;;;;;;14.98;10.63;;;11.60;99.90;;;;;;6186324;23;20020;-83
2021/09/23 00:31:33;;;;;;;17.98;12.68;;;11.50;99.90;;;;;;6189754;23;20015;-82
2021/09/23 00:34:01;;;;;;;15.93;11.40;;;11.50;99.90;;;;;;6188433;23;20016;-82
2021/09/23 00:36:27;;;;;;;16.20;11.52;;;11.50;99.90;;;;;;6184549;23;20023;-82
2021/09/23 00:38:53;;;;;;;14.30;10.80;;;11.50;99.90;;;;;;6186141;23;20575;-82
2021/09/23 00:41:20;;;;;;;14.77;11.63;;;11.50;99.90;;;;;;6134904;23;20433;-82
2021/09/23 00:43:47;;;;;;;15.73;12.60;;;11.50;99.90;;;;;;6160585;23;20331;-82
2021/09/23 00:46:14;;;;;;;17.10;13.20;;;11.40;99.90;;;;;;6159951;23;20023;-82
2021/09/23 00:48:41;;;;;;;17.02;11.98;;;11.50;99.90;;;;;;6211167;23;20015;-82
2021/09/23 00:51:08;;;;;;;14.65;10.60;;;11.50;99.90;;;;;;6160321;23;20016;-82
2021/09/23 00:53:34;;;;;;;20.17;13.65;;;11.50;99.90;;;;;;6239223;23;20012;-82
2021/09/23 00:56:02;;;;;;;19.23;12.73;;;11.50;99.90;;;;;;6185219;23;20028;-82
2021/09/23 00:58:33;;;;;;;19.08;13.35;;;11.50;99.90;;;;;;6160156;23;20016;-82
2021/09/23 01:01:00;;;;;;;19.50;12.77;;;11.50;99.90;;;;;;6160044;23;20023;-81
2021/09/23 01:03:26;;;;;;;19.08;12.63;;;11.50;99.90;;;;;;6159796;23;20027;-82
2021/09/23 01:06:00;;;;;;;17.33;12.68;;;11.50;99.90;;;;;;6212161;23;20016;-82
2021/09/23 01:08:26;;;;;;;17.77;12.63;;;11.50;99.90;;;;;;6183027;23;20031;-81
2021/09/23 01:10:54;;;;;;;18.98;13.00;;;11.50;99.90;;;;;;6161882;23;20012;-82
2021/09/23 01:13:27;;;;;;;17.85;12.68;;;11.40;99.90;;;;;;6138185;23;20031;-83
2021/09/23 01:16:05;;;;;;;19.80;12.15;;;11.40;99.90;;;;;;6162346;23;20341;-83
2021/09/23 01:18:52;;;;;;;11.82;8.13;;;11.40;99.90;;;;;;6193985;23;20016;-82
2021/09/23 01:21:22;;;;;;;20.23;12.65;;;11.40;99.90;;;;;;6160393;23;20015;-82
2021/09/23 01:23:49;;;;;;;21.45;14.93;;;11.40;99.90;;;;;;6158685;23;20449;-83
2021/09/23 01:26:26;;;;;;;26.85;19.40;;;11.40;99.90;;;;;;6158998;23;20027;-83
2021/09/23 01:28:54;;;;;;;23.40;16.15;;;11.40;99.90;;;;;;6157963;23;20504;-81
2021/09/23 01:31:23;;;;;;;19.88;14.20;;;11.40;99.90;;;;;;6159174;23;20023;-82
2021/09/23 01:33:51;;;;;;;24.27;15.35;;;11.40;99.90;;;;;;6160110;23;20012;-82
2021/09/23 01:36:19;;;;;;;21.90;14.93;;;11.40;99.90;;;;;;6158815;23;20016;-86
2021/09/23 01:38:52;;;;;;;25.25;16.45;;;11.30;99.90;;;;;;6184557;23;20008;-83
2021/09/23 01:41:18;;;;;;;26.85;16.73;;;11.40;99.90;;;;;;6182643;23;20008;-83
2021/09/23 01:43:45;;;;;;;26.70;17.85;;;11.40;99.90;;;;;;6183841;23;20012;-83
2021/09/23 01:46:12;;;;;;;24.33;15.65;;;11.30;99.90;;;;;;6186204;23;20035;-83
2021/09/23 01:48:50;;;;;;;22.50;15.73;;;11.40;99.90;;;;;;6141444;23;20023;-83
2021/09/23 01:51:16;;;;;;;21.42;13.95;;;11.40;99.90;;;;;;6197294;23;20026;-83
2021/09/23 01:53:43;;;;;;;22.10;14.48;;;11.30;99.90;;;;;;6145568;23;20020;-83
2021/09/23 01:56:10;;;;;;;24.50;15.18;;;11.30;99.90;;;;;;6160118;23;20400;-83
2021/09/23 01:58:37;;;;;;;19.00;14.30;;;11.40;99.90;;;;;;6210133;23;20536;-83
2021/09/23 02:01:03;;;;;;;18.35;13.50;;;11.40;99.90;;;;;;6160600;23;20008;-83
2021/09/23 02:03:31;;;;;;;22.88;14.48;;;11.30;99.90;;;;;;6159746;23;20016;-83
2021/09/23 02:06:08;;;;;;;24.65;15.18;;;11.30;99.90;;;;;;6133031;23;20027;-84
2021/09/23 02:08:35;;;;;;;25.88;14.85;;;11.30;99.90;;;;;;6179598;23;20013;-84
2021/09/23 02:11:03;;;;;;;26.08;15.90;;;11.20;99.90;;;;;;6180204;23;20019;-84
2021/09/23 02:13:37;;;;;;;27.35;16.55;;;11.20;99.90;;;;;;6156335;23;20020;-83
2021/09/23 02:16:04;;;;;;;32.35;16.85;;;11.20;99.90;;;;;;6157511;23;20019;-84
2021/09/23 02:18:31;;;;;;;26.33;14.85;;;11.20;99.90;;;;;;6157189;23;20015;-84
2021/09/23 02:20:58;;;;;;;29.00;16.45;;;11.20;99.90;;;;;;6157661;23;20402;-84
2021/09/23 02:23:24;;;;;;;29.13;17.23;;;11.20;99.90;;;;;;6157523;23;20013;-82
2021/09/23 02:25:51;;;;;;;28.90;18.52;;;11.20;99.90;;;;;;6132916;23;20015;-83
2021/09/23 02:28:18;;;;;;;28.75;16.88;;;11.20;99.90;;;;;;6181183;23;20005;-84
2021/09/23 02:30:44;;;;;;;31.63;18.23;;;11.20;99.90;;;;;;6156506;23;20350;-83
2021/09/23 02:33:11;;;;;;;32.10;19.20;;;11.20;99.90;;;;;;6133826;23;20013;-83
2021/09/23 02:35:37;;;;;;;29.48;17.98;;;11.30;99.90;;;;;;6156828;23;20016;-83
2021/09/23 02:38:04;;;;;;;35.05;19.45;;;11.20;99.90;;;;;;6181563;23;20016;-83
2021/09/23 02:40:30;;;;;;;28.40;17.17;;;11.30;99.90;;;;;;6183752;23;20005;-83
2021/09/23 02:42:57;;;;;;;26.13;16.00;;;11.20;99.90;;;;;;6157375;23;20017;-83
2021/09/23 02:45:23;;;;;;;25.52;15.88;;;11.20;99.90;;;;;;6181287;23;20779;-83
2021/09/23 02:47:50;;;;;;;30.75;16.48;;;11.20;99.90;;;;;;6155749;23;20350;-83
2021/09/23 02:50:17;;;;;;;29.35;16.40;;;11.20;99.90;;;;;;6181779;23;20049;-83
2021/09/23 02:52:43;;;;;;;28.58;15.82;;;11.20;99.90;;;;;;6182411;23;20009;-83
2021/09/23 02:55:10;;;;;;;27.65;16.23;;;11.10;99.90;;;;;;6184979;23;20017;-83
2021/09/23 02:57:37;;;;;;;31.85;17.45;;;11.10;99.90;;;;;;6131841;23;20012;-83
2021/09/23 03:00:05;;;;;;;33.70;19.48;;;11.10;99.90;;;;;;6157169;23;20001;-83
2021/09/23 03:02:31;;;;;;;28.95;17.20;;;11.10;99.90;;;;;;6157191;23;20008;-83
2021/09/23 03:04:58;;;;;;;25.35;16.17;;;11.10;99.90;;;;;;6156517;23;20021;-83
2021/09/23 03:07:24;;;;;;;26.58;16.15;;;11.00;99.90;;;;;;6155545;23;20031;-83
2021/09/23 03:09:51;;;;;;;33.78;18.45;;;11.00;99.90;;;;;;6181807;23;20012;-83
2021/09/23 03:12:19;;;;;;;26.88;16.88;;;11.00;99.90;;;;;;6157189;23;20017;-84
2021/09/23 03:14:46;;;;;;;30.13;17.35;;;11.00;99.90;;;;;;6206022;23;20013;-85
2021/09/23 03:17:13;;;;;;;26.35;15.60;;;11.00;99.90;;;;;;6181228;23;20012;-84
2021/09/23 03:19:39;;;;;;;30.98;17.35;;;11.00;99.90;;;;;;6181686;23;20446;-83
2021/09/23 03:22:06;;;;;;;30.73;15.23;;;10.90;99.90;;;;;;6131819;23;20023;-83
2021/09/23 03:24:32;;;;;;;25.55;15.55;;;10.90;99.90;;;;;;6156523;23;20350;-83
2021/09/23 03:26:59;;;;;;;31.05;17.75;;;10.90;99.90;;;;;;6207339;23;20339;-82
2021/09/23 03:29:25;;;;;;;25.13;15.65;;;10.90;99.90;;;;;;6183652;23;20004;-82
2021/09/23 03:31:52;;;;;;;28.45;16.73;;;10.80;99.90;;;;;;6156230;23;20024;-83
2021/09/23 03:34:18;;;;;;;24.58;15.57;;;10.80;99.90;;;;;;6156042;23;20028;-83
2021/09/23 03:36:45;;;;;;;29.27;15.55;;;10.80;99.90;;;;;;6106705;23;20012;-83
2021/09/23 03:39:13;;;;;;;26.92;16.02;;;10.80;99.90;;;;;;6207599;23;20008;-83
2021/09/23 03:41:40;;;;;;;25.88;16.17;;;10.70;99.90;;;;;;6181154;23;20016;-83
2021/09/23 03:44:06;;;;;;;30.15;15.77;;;10.80;99.90;;;;;;6181439;23;20013;-82
2021/09/23 03:46:33;;;;;;;24.92;14.63;;;10.70;99.90;;;;;;6155623;23;20021;-83
2021/09/23 03:49:00;;;;;;;28.27;17.48;;;10.70;99.90;;;;;;6131809;23;20354;-82
2021/09/23 03:51:27;;;;;;;28.15;15.73;;;10.70;99.90;;;;;;6156147;23;20021;-83
2021/09/23 03:53:53;;;;;;;27.25;17.50;;;10.70;99.90;;;;;;6155865;23;20520;-83
2021/09/23 03:56:21;;;;;;;25.23;16.48;;;10.70;99.90;;;;;;6107394;23;20012;-83
2021/09/23 03:58:47;;;;;;;27.42;17.00;;;10.70;99.90;;;;;;6179325;23;20450;-83
2021/09/23 04:01:14;;;;;;;25.73;16.58;;;10.70;99.90;;;;;;6155483;23;20342;-83
2021/09/23 04:03:42;;;;;;;29.33;17.02;;;10.60;99.90;;;;;;6180359;23;20014;-83
2021/09/23 04:06:09;;;;;;;29.83;17.60;;;10.60;99.90;;;;;;6131523;23;20016;-83
2021/09/23 04:08:36;;;;;;;27.73;17.20;;;10.60;99.90;;;;;;6156027;23;20009;-83
2021/09/23 04:11:07;;;;;;;28.17;16.00;;;10.60;99.90;;;;;;6182642;23;20013;-83
2021/09/23 04:13:34;;;;;;;24.58;15.88;;;10.60;99.90;;;;;;6181424;23;20805;-83
2021/09/23 04:16:00;;;;;;;25.20;15.82;;;10.50;99.90;;;;;;6131527;23;20021;-83
2021/09/23 04:18:27;;;;;;;27.58;15.85;;;10.50;99.90;;;;;;6180725;23;20008;-83
2021/09/23 04:20:54;;;;;;;29.02;16.80;;;10.50;99.90;;;;;;6155697;23;20020;-83
2021/09/23 04:23:21;;;;;;;25.15;16.63;;;10.50;99.90;;;;;;6180480;23;20008;-83
2021/09/23 04:25:49;;;;;;;28.33;16.33;;;10.40;99.90;;;;;;6161092;23;20023;-83
2021/09/23 04:28:15;;;;;;;30.27;17.67;;;10.40;99.90;;;;;;6168735;23;20021;-82
2021/09/23 04:30:42;;;;;;;28.98;17.20;;;10.40;99.90;;;;;;6185204;23;20009;-82
2021/09/23 04:33:08;;;;;;;29.10;17.00;;;10.40;99.90;;;;;;6156401;23;20452;-81
2021/09/23 04:35:35;;;;;;;27.90;17.00;;;10.40;99.90;;;;;;6182168;23;20023;-82
2021/09/23 04:38:02;;;;;;;26.63;17.35;;;10.40;99.90;;;;;;6181762;23;20005;-81
2021/09/23 04:40:28;;;;;;;27.13;17.15;;;10.30;99.90;;;;;;6156428;23;20008;-82
2021/09/23 04:42:55;;;;;;;29.77;16.48;;;10.40;99.90;;;;;;6156587;23;20008;-81
2021/09/23 04:45:21;;;;;;;26.17;16.90;;;10.40;99.90;;;;;;6206401;23;20012;-81
2021/09/23 04:47:48;;;;;;;23.85;16.67;;;10.40;99.90;;;;;;6180891;23;20021;-81
2021/09/23 04:50:14;;;;;;;27.45;17.52;;;10.40;99.90;;;;;;6182505;23;20443;-81
2021/09/23 04:52:41;;;;;;;26.75;16.83;;;10.40;99.90;;;;;;6181481;23;20019;-82
2021/09/23 04:55:08;;;;;;;25.50;17.23;;;10.40;99.90;;;;;;6131604;23;20021;-82
2021/09/23 04:57:35;;;;;;;25.67;16.23;;;10.40;99.90;;;;;;6154628;23;20020;-82
2021/09/23 05:00:05;;;;;;;27.02;17.52;;;10.30;99.90;;;;;;6132314;23;20008;-81
2021/09/23 05:02:32;;;;;;;24.23;16.58;;;10.30;99.90;;;;;;6155935;23;20346;-82
2021/09/23 05:05:00;;;;;;;25.92;16.23;;;10.30;99.90;;;;;;6158685;23;20018;-82
2021/09/23 05:07:28;;;;;;;23.65;16.02;;;10.30;99.90;;;;;;6179655;23;20021;-82
2021/09/23 05:09:55;;;;;;;26.50;17.42;;;10.30;99.90;;;;;;6156477;23;20342;-82
2021/09/23 05:12:22;;;;;;;27.45;16.75;;;10.30;99.90;;;;;;6155617;23;20016;-82
2021/09/23 05:14:49;;;;;;;25.67;17.15;;;10.30;99.90;;;;;;6156447;23;20008;-82
2021/09/23 05:17:16;;;;;;;26.48;18.58;;;10.30;99.90;;;;;;6155690;23;20024;-82
2021/09/23 05:19:56;;;;;;;29.73;18.10;;;10.30;99.90;;;;;;6156143;23;20012;-83
2021/09/23 05:22:27;;;;;;;31.00;19.42;;;10.30;99.90;;;;;;6208706;23;20406;-84
2021/09/23 05:24:55;;;;;;;26.33;17.77;;;10.30;99.90;;;;;;6181885;23;20020;-89
2021/09/23 05:27:22;;;;;;;30.33;19.38;;;10.30;99.90;;;;;;6180705;23;20004;-80
2021/09/23 05:29:48;;;;;;;25.70;19.15;;;10.40;99.90;;;;;;6206090;23;20017;-86
2021/09/23 05:32:15;;;;;;;25.73;17.27;;;10.40;99.90;;;;;;6180190;23;20020;-84
2021/09/23 05:34:42;;;;;;;29.83;19.50;;;10.40;99.90;;;;;;6155419;23;20027;-84
2021/09/23 05:37:09;;;;;;;30.20;19.63;;;10.40;99.90;;;;;;6155092;23;20039;-83
2021/09/23 05:39:36;;;;;;;26.23;19.25;;;10.40;99.90;;;;;;6180689;23;20454;-85
2021/09/23 05:42:03;;;;;;;28.98;20.17;;;10.50;99.90;;;;;;6157488;23;20410;-85
2021/09/23 05:44:30;;;;;;;30.55;20.80;;;10.50;99.90;;;;;;6155616;23;20050;-84
2021/09/23 05:46:57;;;;;;;26.30;19.52;;;10.60;99.90;;;;;;6178807;23;20012;-84
2021/09/23 05:49:24;;;;;;;31.85;21.27;;;10.70;99.90;;;;;;6155584;23;20020;-85
2021/09/23 05:51:51;;;;;;;31.52;20.85;;;10.70;99.90;;;;;;6156962;23;20012;-84
2021/09/23 05:54:19;;;;;;;31.05;22.08;;;10.70;99.90;;;;;;6207572;23;20004;-86
2021/09/23 05:56:45;;;;;;;25.08;17.85;;;10.80;99.90;;;;;;6155564;23;20024;-83
2021/09/23 05:59:12;;;;;;;25.48;17.95;;;10.80;99.90;;;;;;6180141;23;20013;-85
2021/09/23 06:01:38;;;;;;;24.67;18.33;;;10.90;99.90;;;;;;6156569;23;20020;-85
2021/09/23 06:04:05;;;;;;;23.17;16.40;;;10.90;99.90;;;;;;6155612;23;20013;-81
2021/09/23 06:06:31;;;;;;;27.83;19.45;;;11.00;99.90;;;;;;6203322;23;20017;-82
2021/09/23 06:08:59;;;;;;;24.75;19.17;;;11.10;99.90;;;;;;6155330;23;20461;-81
2021/09/23 06:11:26;;;;;;;26.35;18.73;;;11.20;99.90;;;;;;6155639;23;20004;-81
2021/09/23 06:13:53;;;;;;;28.63;20.02;;;11.20;99.90;;;;;;6179699;23;20013;-83
2021/09/23 06:16:19;;;;;;;28.85;19.80;;;11.40;99.90;;;;;;6130186;23;20031;-83
2021/09/23 06:18:49;;;;;;;30.33;21.42;;;11.40;99.90;;;;;;6179591;23;20013;-83
2021/09/23 06:21:16;;;;;;;34.33;22.77;;;11.50;99.90;;;;;;6132831;23;20009;-83
2021/09/23 06:23:42;;;;;;;30.45;20.65;;;11.60;99.90;;;;;;6181905;23;20004;-83
2021/09/23 06:26:09;;;;;;;33.33;23.25;;;11.70;99.90;;;;;;6179275;23;20024;-83
2021/09/23 06:28:35;;;;;;;35.85;24.42;;;11.80;99.90;;;;;;6155087;23;20017;-82
2021/09/23 06:31:04;;;;;;;34.80;25.92;;;11.90;99.90;;;;;;6178426;23;20414;-82
2021/09/23 06:33:31;;;;;;;27.27;18.60;;;12.00;99.90;;;;;;6178311;23;20008;-82
2021/09/23 06:36:02;;;;;;;32.53;22.98;;;12.10;99.90;;;;;;6155253;23;20012;-81
2021/09/23 06:38:29;;;;;;;31.67;23.42;;;12.20;99.90;;;;;;6152844;23;20017;-82
2021/09/23 06:40:58;;;;;;;40.55;27.98;;;12.30;99.90;;;;;;6208716;23;20020;-83
2021/09/23 06:43:25;;;;;;;38.28;28.38;;;12.50;99.90;;;;;;6155532;23;20009;-84
2021/09/23 06:45:51;;;;;;;42.70;30.10;;;12.60;99.90;;;;;;6179899;23;20017;-83
2021/09/23 06:48:18;;;;;;;35.95;25.23;;;12.70;99.90;;;;;;6204050;23;20012;-83
2021/09/23 06:50:44;;;;;;;32.38;23.98;;;12.80;99.90;;;;;;6155536;23;20009;-82
2021/09/23 06:53:11;;;;;;;37.60;27.50;;;12.90;99.90;;;;;;6180300;23;20021;-82
2021/09/23 06:55:37;;;;;;;39.38;28.52;;;13.00;99.90;;;;;;6182413;23;20009;-83
2021/09/23 06:58:04;;;;;;;42.33;27.75;;;13.10;99.90;;;;;;6184000;23;20016;-82
2021/09/23 07:00:49;;;;;;;40.08;27.45;;;13.20;99.90;;;;;;6214950;23;20016;-81
2021/09/23 07:03:35;;;;;;;36.90;27.42;;;13.30;99.90;;;;;;6200690;23;20004;-82
2021/09/23 07:06:15;;;;;;;38.08;29.00;;;13.40;99.90;;;;;;6187303;23;20023;-83
2021/09/23 07:08:41;;;;;;;45.05;31.00;;;13.40;99.90;;;;;;6157939;23;20009;-82
2021/09/23 07:11:11;;;;;;;34.15;26.60;;;13.40;99.90;;;;;;6184682;23;20008;-82
2021/09/23 07:13:38;;;;;;;44.25;32.40;;;13.40;99.90;;;;;;6184084;23;20015;-82
2021/09/23 07:16:04;;;;;;;35.20;26.75;;;13.40;99.90;;;;;;6158522;23;20020;-82
2021/09/23 07:18:31;;;;;;;36.30;27.30;;;13.40;99.90;;;;;;6182461;23;20012;-83
2021/09/23 07:21:00;;;;;;;39.63;28.13;;;13.40;99.90;;;;;;6132459;23;20008;-82
2021/09/23 07:23:26;;;;;;;39.90;26.70;;;13.50;99.90;;;;;;6181452;23;20009;-81
2021/09/23 07:25:53;;;;;;;37.38;27.35;;;13.60;99.90;;;;;;6131373;23;20020;-83
2021/09/23 07:28:20;;;;;;;35.35;27.48;;;13.70;99.90;;;;;;6155067;23;20016;-83
2021/09/23 07:30:47;;;;;;;41.00;27.83;;;13.80;99.90;;;;;;6156537;23;20521;-82
2021/09/23 07:33:14;;;;;;;41.30;29.70;;;13.90;99.90;;;;;;6181641;23;20013;-82
2021/09/23 07:35:40;;;;;;;34.38;24.38;;;14.20;99.90;;;;;;6180835;23;20009;-83
2021/09/23 07:38:12;;;;;;;34.15;25.77;;;14.40;99.90;;;;;;6181369;23;20005;-85
2021/09/23 07:40:38;;;;;;;36.05;27.10;;;14.60;99.90;;;;;;6184002;23;20009;-85
2021/09/23 07:43:05;;;;;;;48.38;31.48;;;14.80;99.90;;;;;;6187630;23;20012;-83
2021/09/23 07:45:32;;;;;;;35.80;27.02;;;14.90;99.90;;;;;;6157203;23;20130;-83
2021/09/23 07:47:59;;;;;;;36.97;26.60;;;15.10;99.90;;;;;;6131685;23;20020;-84
2021/09/23 07:50:25;;;;;;;41.53;30.88;;;15.20;99.90;;;;;;6181122;23;20434;-82
2021/09/23 07:52:53;;;;;;;39.97;29.02;;;15.20;99.90;;;;;;6157549;23;20008;-80
2021/09/23 07:55:20;;;;;;;45.50;31.48;;;15.30;99.90;;;;;;6156421;23;20012;-82
2021/09/23 07:57:50;;;;;;;38.90;29.05;;;15.30;99.90;;;;;;6181408;23;20004;-83
2021/09/23 08:00:17;;;;;;;42.85;30.38;;;15.40;99.90;;;;;;6181136;23;20008;-86
2021/09/23 08:02:44;;;;;;;39.00;29.30;;;15.50;99.90;;;;;;6206905;23;20008;-85
2021/09/23 08:05:14;;;;;;;37.65;28.20;;;15.60;99.90;;;;;;6206582;23;20008;-84
2021/09/23 08:07:46;;;;;;;48.55;29.05;;;15.70;99.90;;;;;;6180074;23;20021;-84
2021/09/23 08:10:14;;;;;;;29.98;22.95;;;15.80;99.90;;;;;;6183101;23;20015;-84
2021/09/23 08:12:41;;;;;;;39.22;28.02;;;15.90;99.90;;;;;;6180831;23;20462;-84
2021/09/23 08:15:09;;;;;;;38.40;28.80;;;16.00;99.90;;;;;;6181600;23;20031;-84
2021/09/23 08:17:59;;;;;;;32.95;24.10;;;16.10;99.90;;;;;;6160914;23;20008;-84
2021/09/23 08:20:47;;;;;;;37.15;27.77;;;16.30;99.90;;;;;;6208390;23;20008;-84
2021/09/23 08:23:14;;;;;;;29.40;23.83;;;16.40;99.90;;;;;;6156685;23;20012;-84
2021/09/23 08:25:43;;;;;;;33.00;25.50;;;16.50;99.90;;;;;;6156862;23;20019;-84
2021/09/23 08:28:12;;;;;;;29.33;23.27;;;16.60;99.90;;;;;;6180578;23;20445;-85
2021/09/23 08:30:42;;;;;;;37.10;25.95;;;16.70;99.90;;;;;;6156572;23;20020;-84
2021/09/23 08:33:09;;;;;;;30.98;23.15;;;16.80;99.90;;;;;;6181102;23;20009;-85
2021/09/23 08:35:38;;;;;;;30.27;22.92;;;16.90;99.90;;;;;;6206205;23;20019;-84
2021/09/23 08:38:04;;;;;;;30.05;25.55;;;17.10;99.90;;;;;;6155575;23;20004;-84
2021/09/23 08:40:32;;;;;;;31.17;19.85;;;17.20;99.90;;;;;;6181163;23;20446;-84
2021/09/23 08:43:00;;;;;;;33.50;23.63;;;17.40;99.90;;;;;;6182302;23;20008;-84
2021/09/23 08:45:28;;;;;;;29.00;22.20;;;17.70;99.90;;;;;;6181243;23;20506;-84
2021/09/23 08:47:55;;;;;;;32.60;24.60;;;17.80;99.90;;;;;;6181602;23;20018;-84
2021/09/23 08:50:35;;;;;;;32.65;24.98;;;17.90;99.90;;;;;;6157077;23;20016;-84
2021/09/23 08:53:17;;;;;;;31.33;23.83;;;17.90;99.90;;;;;;6181188;23;20035;-88
2021/09/23 08:55:47;;;;;;;28.42;22.77;;;17.90;99.90;;;;;;6183223;23;20012;-89
2021/09/23 08:58:29;;;;;;;26.42;20.65;;;17.90;99.90;;;;;;6182314;23;20001;-89
2021/09/23 09:01:03;;;;;;;28.92;21.60;;;17.90;99.90;;;;;;6158315;23;20485;-86
2021/09/23 09:03:56;;;;;;;28.70;21.50;;;18.00;99.90;;;;;;6157753;23;20024;-89
2021/09/23 09:07:03;;;;;;;27.70;22.33;;;18.20;99.90;;;;;;6192823;23;20334;-86
2021/09/23 09:09:52;;;;;;;30.50;21.58;;;18.50;99.90;;;;;;6206941;23;20031;-85
2021/09/23 09:12:21;;;;;;;29.20;21.42;;;18.60;99.90;;;;;;6157755;23;20016;-82
2021/09/23 09:14:48;;;;;;;25.23;19.35;;;18.70;99.90;;;;;;6181435;23;20008;-83
2021/09/23 09:17:19;;;;;;;27.38;21.08;;;18.70;99.90;;;;;;6155301;23;20013;-83
2021/09/23 09:20:07;;;;;;;20.00;16.25;;;18.70;99.90;;;;;;6207463;23;20426;-87
2021/09/23 09:22:36;;;;;;;22.23;17.92;;;18.70;99.90;;;;;;6155670;23;20004;-85
2021/09/23 09:25:08;;;;;;;20.83;16.67;;;18.70;99.90;;;;;;6180090;23;20008;-82
2021/09/23 09:27:44;;;;;;;25.25;17.23;;;18.70;99.90;;;;;;6153083;23;20342;-83
2021/09/23 09:30:13;;;;;;;20.92;17.67;;;18.60;99.90;;;;;;6181214;23;20013;-83
2021/09/23 09:32:48;;;;;;;18.83;15.20;;;18.50;99.90;;;;;;6181204;23;20016;-83
2021/09/23 09:35:22;;;;;;;17.80;13.48;;;18.50;99.90;;;;;;6155288;23;20013;-83
2021/09/23 09:37:52;;;;;;;17.23;14.15;;;18.60;99.90;;;;;;6182008;23;20009;-83
2021/09/23 09:40:23;;;;;;;21.55;13.23;;;18.70;99.90;;;;;;6191933;23;20441;-82
2021/09/23 09:42:53;;;;;;;18.35;12.82;;;18.80;99.90;;;;;;6196530;23;20015;-83
2021/09/23 09:45:26;;;;;;;17.88;12.52;;;18.90;99.90;;;;;;6158243;23;20019;-85
2021/09/23 09:47:55;;;;;;;15.73;11.80;;;19.20;99.90;;;;;;6181610;23;20012;-83
2021/09/23 09:50:29;;;;;;;20.60;13.80;;;19.30;99.90;;;;;;6179195;23;20016;-82
2021/09/23 09:52:58;;;;;;;16.50;11.80;;;19.60;99.90;;;;;;6156071;23;20446;-82
2021/09/23 09:55:32;;;;;;;15.00;12.02;;;19.80;99.80;;;;;;6155824;23;20081;-82
2021/09/23 09:58:00;;;;;;;16.25;12.77;;;20.00;99.40;;;;;;6154752;23;20009;-82
2021/09/23 10:00:29;;;;;;;16.88;11.43;;;20.00;99.00;;;;;;6155593;23;20072;-82
2021/09/23 10:02:56;;;;;;;18.35;12.20;;;20.20;99.00;;;;;;6180408;23;20009;-82
2021/09/23 10:05:32;;;;;;;14.50;10.70;;;20.40;98.70;;;;;;6134316;23;20016;-82
2021/09/23 10:07:59;;;;;;;16.58;11.63;;;20.50;98.30;;;;;;6154642;23;20098;-82
2021/09/23 10:10:31;;;;;;;16.95;12.23;;;20.50;98.00;;;;;;6205749;23;20019;-82
2021/09/23 10:13:03;;;;;;;15.40;10.30;;;20.60;97.60;;;;;;6156675;23;20023;-82
2021/09/23 10:15:31;;;;;;;12.50;10.23;;;20.60;97.70;;;;;;6181303;23;20005;-83
2021/09/23 10:18:01;;;;;;;13.23;9.13;;;20.60;97.50;;;;;;6155345;23;20008;-83
2021/09/23 10:20:29;;;;;;;13.57;10.70;;;20.60;97.20;;;;;;6207329;23;20012;-83
2021/09/23 10:22:56;;;;;;;14.65;12.35;;;20.60;96.90;;;;;;6155513;23;20446;-83
2021/09/23 10:25:26;;;;;;;14.50;9.25;;;20.60;96.70;;;;;;6156852;23;20346;-83
2021/09/23 10:27:58;;;;;;;11.02;7.63;;;20.60;96.70;;;;;;6155130;23;20008;-82
2021/09/23 10:30:35;;;;;;;8.63;7.72;;;20.60;96.50;;;;;;6156039;23;20043;-83
2021/09/23 10:33:05;;;;;;;10.85;7.43;;;20.70;96.30;;;;;;6155577;23;20016;-85
2021/09/23 10:35:35;;;;;;;10.52;6.97;;;20.70;96.20;;;;;;6132733;23;20013;-83
2021/09/23 10:38:11;;;;;;;11.85;7.93;;;20.60;96.10;;;;;;6157682;23;20016;-82
2021/09/23 10:40:40;;;;;;;8.05;6.47;;;20.50;96.10;;;;;;6158843;23;20012;-82
2021/09/23 10:43:15;;;;;;;7.32;5.15;;;20.30;96.20;;;;;;6157367;23;20016;-82
2021/09/23 10:45:44;;;;;;;9.63;6.60;;;20.20;96.40;;;;;;6158185;23;20449;-83
2021/09/23 10:49:05;;;;;;;7.32;5.97;;;20.00;96.00;;;;;;5065769;28;20700;-82
2021/09/23 10:51:35;;;;;;;7.28;6.43;;;19.80;96.40;;;;;;5039643;28;20052;-81
2021/09/23 10:54:12;;;;;;;10.43;5.93;;;19.70;96.60;;;;;;5067961;28;20398;-82
2021/09/23 10:56:41;;;;;;;10.15;7.03;;;19.50;96.80;;;;;;5051547;28;20037;-83
2021/09/23 10:59:09;;;;;;;7.95;5.00;;;19.40;97.00;;;;;;5047804;28;20047;-86
2021/09/23 11:01:39;;;;;;;12.15;6.32;;;19.30;97.20;;;;;;5047986;28;20032;-85
2021/09/23 11:04:09;;;;;;;10.20;6.57;;;19.30;97.40;;;;;;5047054;28;20040;-82
2021/09/23 11:06:41;;;;;;;7.55;4.80;;;19.40;97.40;;;;;;5050661;28;20028;-84
2021/09/23 11:09:17;;;;;;;6.82;5.22;;;19.50;97.40;;;;;;5047929;28;20044;-84
2021/09/23 11:11:47;;;;;;;11.57;5.15;;;19.50;97.40;;;;;;5053391;28;20381;-84
2021/09/23 11:14:19;;;;;;;7.18;4.45;;;19.40;97.40;;;;;;5054964;28;20407;-85
2021/09/23 11:16:49;;;;;;;6.40;4.00;;;19.40;97.50;;;;;;5038917;28;20397;-83
2021/09/23 11:19:23;;;;;;;7.97;4.38;;;19.40;97.50;;;;;;5049015;28;20495;-83
2021/09/23 11:21:54;;;;;;;6.00;4.15;;;19.50;97.50;;;;;;5033110;28;20049;-83
2021/09/23 11:24:23;;;;;;;7.05;3.33;;;19.50;97.50;;;;;;5030066;28;20044;-84
2021/09/23 11:26:51;;;;;;;7.07;3.53;;;19.50;97.40;;;;;;5063731;28;20028;-84
2021/09/23 11:29:19;;;;;;;10.60;3.47;;;19.50;97.30;;;;;;5024144;28;20049;-83
2021/09/23 11:31:46;;;;;;;7.20;3.10;;;19.50;97.20;;;;;;5070875;28;20039;-83
2021/09/23 11:35:03;;;;;;;8.70;2.60;;;19.50;97.00;;;;;;5033288;28;20047;-83
2021/09/23 11:37:32;;;;;;;5.70;3.28;;;19.60;97.00;;;;;;5001359;28;20052;-83
2021/09/23 11:40:01;;;;;;;4.80;2.50;;;19.70;96.70;;;;;;5034751;28;20056;-83
2021/09/23 11:42:32;;;;;;;4.45;2.35;;;19.70;96.60;;;;;;5028096;28;20840;-84
2021/09/23 11:45:06;;;;;;;6.63;1.77;;;19.90;96.50;;;;;;5032218;28;20054;-84
2021/09/23 11:47:32;;;;;;;3.90;2.08;;;20.00;96.40;;;;;;5018565;28;20056;-83
2021/09/23 11:49:59;;;;;;;7.18;2.63;;;20.20;96.10;;;;;;5045117;28;20045;-83
2021/09/23 11:52:34;;;;;;;5.22;1.65;;;20.70;96.10;;;;;;5027488;28;20396;-84
2021/09/23 11:55:02;;;;;;;7.07;2.38;;;21.50;95.50;;;;;;5029916;28;20040;-83
2021/09/23 11:57:30;;;;;;;3.97;1.90;;;22.30;94.00;;;;;;5024335;28;20067;-83
2021/09/23 12:00:00;;;;;;;3.95;1.05;;;22.90;93.50;;;;;;5002741;28;20046;-83
2021/09/23 12:02:32;;;;;;;8.10;2.00;;;23.50;92.60;;;;;;5013425;28;20042;-83
2021/09/23 12:05:00;;;;;;;9.00;2.67;;;23.80;90.90;;;;;;5043177;28;20068;-83
2021/09/23 12:07:31;;;;;;;4.72;1.95;;;23.80;90.00;;;;;;5004360;28;20504;-83
2021/09/23 12:10:11;;;;;;;5.43;2.03;;;23.60;90.00;;;;;;5002907;28;20057;-82
2021/09/23 12:12:59;;;;;;;3.95;1.48;;;23.50;90.00;;;;;;5028957;28;20041;-83
2021/09/23 12:15:30;;;;;;;3.63;1.63;;;23.50;90.10;;;;;;5013009;28;20042;-83
2021/09/23 12:18:01;;;;;;;4.85;1.73;;;23.70;90.00;;;;;;5023317;28;20041;-82
2021/09/23 12:20:37;;;;;;;4.35;2.08;;;23.70;89.00;;;;;;5016160;28;20049;-83
2021/09/23 12:23:24;;;;;;;4.55;1.55;;;23.60;88.50;;;;;;5011265;28;20061;-83
2021/09/23 12:26:15;;;;;;;6.25;2.25;;;23.40;88.50;;;;;;5028384;28;20037;-83
2021/09/23 12:28:53;;;;;;;5.38;2.10;;;23.10;89.00;;;;;;5012652;28;20037;-84
2021/09/23 12:31:39;;;;;;;3.83;1.90;;;23.30;88.70;;;;;;5014563;28;20055;-83
2021/09/23 12:34:18;;;;;;;4.22;1.63;;;23.50;88.00;;;;;;5031659;28;20032;-83
2021/09/23 12:36:50;;;;;;;3.77;1.40;;;23.60;87.80;;;;;;5027980;28;20029;-84
2021/09/23 12:39:20;;;;;;;3.17;1.60;;;23.40;87.60;;;;;;5026609;28;20037;-83
2021/09/23 12:41:52;;;;;;;4.07;1.42;;;23.20;87.80;;;;;;5033703;28;20037;-83
2021/09/23 12:44:24;;;;;;;8.27;1.40;;;23.00;88.00;;;;;;5031627;28;20055;-83